createdAt,value
2023-03-06T00:01:29.762Z,97920.16
2023-03-06T00:03:59.180Z,97915.16
2023-03-06T00:06:34.764Z,97916.03
2023-03-06T00:09:06.008Z,97910.28
2023-03-06T00:14:10.527Z,97913.88
2023-03-06T00:16:39.700Z,97906.22
2023-03-06T00:19:08.948Z,97919.56
2023-03-06T00:21:38.066Z,97911.69
2023-03-06T00:24:09.671Z,97912.38
2023-03-06T00:26:40.768Z,97910.56
2023-03-06T00:29:10.173Z,97910.28
2023-03-06T00:31:39.710Z,97916.97
2023-03-06T00:34:09.003Z,97907.56
2023-03-06T00:36:43.266Z,97914.31
2023-03-06T00:39:14.506Z,97886.31
2023-03-06T00:41:48.741Z,97902.47
2023-03-06T00:44:17.974Z,97912.63
2023-03-06T00:46:47.122Z,97919.47
2023-03-06T00:49:22.662Z,97918.63
2023-03-06T00:51:51.781Z,97916.16
2023-03-06T00:54:23.097Z,97912.00
2023-03-06T00:56:52.573Z,97921.31
2023-03-06T00:59:21.916Z,97906.13
2023-03-06T01:01:51.247Z,97917.94
2023-03-06T01:04:20.804Z,97886.47
2023-03-06T01:09:35.681Z,97912.88
2023-03-06T01:12:05.084Z,97918.03
2023-03-06T01:14:39.166Z,97909.63
2023-03-06T01:17:09.066Z,97915.59
2023-03-06T01:19:38.683Z,97908.00
2023-03-06T01:22:07.922Z,97914.00
2023-03-06T01:24:39.193Z,97916.66
2023-03-06T01:27:08.704Z,97888.78
2023-03-06T01:29:37.890Z,97915.06
2023-03-06T01:32:08.064Z,97916.84
2023-03-06T01:34:42.287Z,97915.22
2023-03-06T01:37:11.571Z,97921.09
2023-03-06T01:39:42.652Z,97921.94
2023-03-06T01:42:17.378Z,97895.59
2023-03-06T01:45:01.054Z,97931.25
2023-03-06T01:47:32.409Z,97921.19
2023-03-06T01:50:11.776Z,97920.38
2023-03-06T01:52:46.360Z,97902.53
2023-03-06T01:55:21.366Z,97924.66
2023-03-06T01:57:55.337Z,97934.00
2023-03-06T02:00:27.093Z,97928.09
2023-03-06T02:03:00.313Z,97923.97
2023-03-06T02:05:29.620Z,97916.38
2023-03-06T02:07:59.848Z,97918.88
2023-03-06T02:10:31.205Z,97923.13
2023-03-06T02:13:01.568Z,97929.00
2023-03-06T02:15:37.424Z,97931.47
2023-03-06T02:18:11.763Z,97938.19
2023-03-06T02:20:55.597Z,97939.06
2023-03-06T02:23:33.913Z,97935.78
2023-03-06T02:26:06.138Z,97932.44
2023-03-06T02:28:35.950Z,97916.13
2023-03-06T02:31:05.450Z,97933.00
2023-03-06T02:33:35.830Z,97932.03
2023-03-06T02:36:08.614Z,97923.53
2023-03-06T02:38:42.720Z,97930.25
2023-03-06T02:41:13.775Z,97934.41
2023-03-06T02:43:50.781Z,97925.09
2023-03-06T02:46:20.340Z,97931.78
2023-03-06T02:48:49.552Z,97932.63
2023-03-06T02:53:53.551Z,97929.31
2023-03-06T02:56:26.034Z,97908.03
2023-03-06T02:59:00.492Z,97924.22
2023-03-06T03:01:30.348Z,97926.75
2023-03-06T03:03:59.483Z,97921.53
2023-03-06T03:06:29.491Z,97936.91
2023-03-06T03:08:59.478Z,97930.16
2023-03-06T03:11:30.873Z,97931.06
2023-03-06T03:14:05.244Z,97937.91
2023-03-06T03:16:39.921Z,97937.91
2023-03-06T03:19:09.283Z,97936.25
2023-03-06T03:21:38.720Z,97888.66
2023-03-06T03:24:08.973Z,97925.34
2023-03-06T03:26:40.288Z,97929.50
2023-03-06T03:29:14.825Z,97927.88
2023-03-06T03:31:44.289Z,97930.50
2023-03-06T03:34:13.714Z,97940.69
2023-03-06T03:36:45.037Z,97933.19
2023-03-06T03:39:15.611Z,97937.44
2023-03-06T03:41:58.231Z,97942.53
2023-03-06T03:44:27.760Z,97940.88
2023-03-06T03:46:57.870Z,97943.47
2023-03-06T03:49:32.572Z,97922.22
2023-03-06T03:52:03.183Z,97917.97
2023-03-06T03:54:36.053Z,97945.25
2023-03-06T03:57:12.297Z,97937.72
2023-03-06T03:59:52.384Z,97944.44
2023-03-06T04:02:28.650Z,97933.41
2023-03-06T04:05:12.892Z,97915.53
2023-03-06T04:07:45.881Z,97944.41
2023-03-06T04:10:15.550Z,97944.28
2023-03-06T04:12:47.236Z,97934.00
2023-03-06T04:15:16.620Z,97944.94
2023-03-06T04:17:47.483Z,97941.50
2023-03-06T04:20:20.721Z,97943.22
2023-03-06T04:22:50.784Z,97918.69
2023-03-06T04:25:20.432Z,97938.38
2023-03-06T04:27:51.708Z,97936.81
2023-03-06T04:30:21.284Z,97939.38
2023-03-06T04:32:51.623Z,97917.25
2023-03-06T04:35:21.119Z,97940.25
2023-03-06T04:38:02.545Z,97937.75
2023-03-06T04:40:35.696Z,97940.34
2023-03-06T04:43:07.811Z,97930.13
2023-03-06T04:45:36.804Z,97945.50
2023-03-06T04:48:06.433Z,97938.66
2023-03-06T04:50:37.628Z,97940.34
2023-03-06T04:53:08.265Z,97941.22
2023-03-06T04:55:37.969Z,97942.13
2023-03-06T04:58:09.036Z,97898.84
2023-03-06T05:00:38.436Z,97939.66
2023-03-06T05:03:12.869Z,97915.13
2023-03-06T05:08:18.976Z,97934.00
2023-03-06T05:10:48.313Z,97943.34
2023-03-06T05:13:19.382Z,97940.03
2023-03-06T05:15:49.298Z,97946.00
2023-03-06T05:18:18.614Z,97899.41
2023-03-06T05:23:40.868Z,97940.22
2023-03-06T05:26:10.929Z,97946.09
2023-03-06T05:28:42.743Z,97939.25
2023-03-06T05:31:16.841Z,97944.28
2023-03-06T05:33:46.344Z,97949.38
2023-03-06T05:36:15.542Z,97946.88
2023-03-06T05:38:49.937Z,97950.31
2023-03-06T05:41:19.243Z,97951.97
2023-03-06T05:46:25.372Z,97947.69
2023-03-06T05:48:57.080Z,97962.13
2023-03-06T05:51:31.554Z,97965.63
2023-03-06T05:54:00.770Z,97937.78
2023-03-06T05:56:30.133Z,97967.56
2023-03-06T05:59:01.574Z,97969.28
2023-03-06T06:01:35.939Z,97953.25
2023-03-06T06:04:05.472Z,97970.19
2023-03-06T06:06:34.628Z,97966.00
2023-03-06T06:09:03.900Z,97972.84
2023-03-06T06:11:33.298Z,97970.34
2023-03-06T06:14:11.487Z,97961.91
2023-03-06T06:16:45.710Z,97967.94
2023-03-06T06:19:18.356Z,97964.66
2023-03-06T06:21:49.474Z,97966.34
2023-03-06T06:24:21.906Z,97966.38
2023-03-06T06:27:04.107Z,97949.41
2023-03-06T06:29:35.555Z,97954.47
2023-03-06T06:32:05.062Z,97967.16
2023-03-06T06:34:34.415Z,97965.41
2023-03-06T06:37:03.611Z,97961.19
2023-03-06T06:39:33.920Z,97936.59
2023-03-06T06:42:28.290Z,97976.44
2023-03-06T06:44:59.423Z,97968.00
2023-03-06T06:47:28.558Z,97966.28
2023-03-06T06:49:58.451Z,97970.53
2023-03-06T06:52:28.025Z,97982.41
2023-03-06T06:54:57.333Z,97975.69
2023-03-06T06:57:32.777Z,97976.53
2023-03-06T07:00:03.913Z,97978.28
2023-03-06T07:02:35.248Z,97968.97
2023-03-06T07:05:05.668Z,97984.22
2023-03-06T07:07:36.965Z,97971.50
2023-03-06T07:10:07.796Z,97957.09
2023-03-06T07:12:37.049Z,97974.06
2023-03-06T07:15:09.649Z,97967.22
2023-03-06T07:17:38.892Z,97984.09
2023-03-06T07:20:08.675Z,97967.91
2023-03-06T07:22:50.254Z,97984.78
2023-03-06T07:25:25.441Z,97979.53
2023-03-06T07:27:55.159Z,97959.81
2023-03-06T07:30:26.608Z,97968.06
2023-03-06T07:32:57.238Z,97987.63
2023-03-06T07:35:32.589Z,97948.78
2023-03-06T07:38:01.890Z,97985.22
2023-03-06T07:40:31.211Z,97984.47
2023-03-06T07:43:16.823Z,97987.75
2023-03-06T07:45:58.018Z,97990.09
2023-03-06T07:48:27.820Z,97984.00
2023-03-06T07:50:58.404Z,97986.59
2023-03-06T07:53:27.752Z,97991.94
2023-03-06T07:56:02.502Z,97991.94
2023-03-06T07:58:31.763Z,97987.66
2023-03-06T08:01:05.984Z,97999.59
2023-03-06T08:03:35.637Z,97993.69
2023-03-06T08:06:09.620Z,97998.97
2023-03-06T08:08:39.838Z,98005.03
2023-03-06T08:11:20.902Z,98001.69
2023-03-06T08:13:52.144Z,97994.09
2023-03-06T08:16:25.347Z,97999.16
2023-03-06T08:18:54.926Z,98007.75
2023-03-06T08:21:25.554Z,98008.75
2023-03-06T08:24:00.621Z,98003.63
2023-03-06T08:26:33.402Z,98004.53
2023-03-06T08:29:03.943Z,98005.38
2023-03-06T08:31:36.590Z,98002.78
2023-03-06T08:34:08.544Z,98012.16
2023-03-06T08:36:37.731Z,98012.91
2023-03-06T08:39:07.815Z,97996.84
2023-03-06T08:41:37.566Z,97998.59
2023-03-06T08:44:07.495Z,98017.28
2023-03-06T08:46:39.877Z,98013.91
2023-03-06T08:49:09.244Z,98019.00
2023-03-06T08:51:40.359Z,98016.47
2023-03-06T08:54:11.238Z,98015.59
2023-03-06T08:56:40.482Z,98018.97
2023-03-06T08:59:10.583Z,98011.31
2023-03-06T09:01:42.774Z,97990.09
2023-03-06T09:04:13.579Z,98019.69
2023-03-06T09:06:45.141Z,98017.91
2023-03-06T09:09:15.326Z,98017.81
2023-03-06T09:11:50.799Z,98021.97
2023-03-06T09:14:19.894Z,98023.72
2023-03-06T09:16:51.048Z,98028.72
2023-03-06T09:19:20.421Z,98016.66
2023-03-06T09:21:49.958Z,98019.06
2023-03-06T09:24:19.658Z,98009.75
2023-03-06T09:26:50.499Z,98020.78
2023-03-06T09:29:20.876Z,98023.41
2023-03-06T09:31:52.298Z,98034.69
2023-03-06T09:34:21.773Z,98025.41
2023-03-06T09:36:56.787Z,98032.97
2023-03-06T09:39:27.624Z,98001.63
2023-03-06T09:42:01.886Z,98029.59
2023-03-06T09:44:33.967Z,98037.25
2023-03-06T09:47:13.066Z,98011.72
2023-03-06T09:52:46.702Z,98044.34
2023-03-06T09:55:24.668Z,98046.09
2023-03-06T09:58:00.572Z,98052.84
2023-03-06T10:00:36.147Z,98046.84
2023-03-06T10:03:21.487Z,98043.38
2023-03-06T10:05:55.312Z,98054.47
2023-03-06T10:08:31.606Z,98052.81
2023-03-06T10:11:03.274Z,98051.09
2023-03-06T10:13:40.154Z,98046.84
2023-03-06T10:16:23.507Z,98040.13
2023-03-06T10:19:04.160Z,98046.09
2023-03-06T10:21:45.228Z,98013.88
2023-03-06T10:24:26.202Z,98024.91
2023-03-06T10:27:02.573Z,98058.00
2023-03-06T10:30:01.277Z,98042.66
2023-03-06T10:32:50.122Z,98053.63
2023-03-06T10:35:30.369Z,98045.84
2023-03-06T10:38:14.235Z,98028.03
2023-03-06T10:40:52.985Z,98056.63
2023-03-06T10:43:24.705Z,98053.13
2023-03-06T10:45:55.731Z,98047.91
2023-03-06T10:48:27.081Z,98043.59
2023-03-06T10:51:18.141Z,98038.47
2023-03-06T10:53:54.856Z,98054.63
2023-03-06T10:56:32.386Z,98052.84
2023-03-06T10:59:08.732Z,98047.63
2023-03-06T11:01:38.749Z,98045.25
2023-03-06T11:04:23.790Z,98048.72
2023-03-06T11:07:15.309Z,98047.13
2023-03-06T11:09:47.398Z,98050.63
2023-03-06T11:12:24.762Z,98051.31
2023-03-06T11:15:12.442Z,98048.56
2023-03-06T11:17:52.540Z,98049.16
2023-03-06T11:20:24.634Z,98056.06
2023-03-06T11:22:59.637Z,98056.28
2023-03-06T11:25:39.795Z,98051.41
2023-03-06T11:28:17.820Z,98061.72
2023-03-06T11:30:56.421Z,98067.75
2023-03-06T11:33:32.562Z,98049.28
2023-03-06T11:36:15.854Z,98070.56
2023-03-06T11:38:51.668Z,98067.22
2023-03-06T11:41:37.925Z,98063.91
2023-03-06T11:44:20.622Z,98058.00
2023-03-06T11:47:07.683Z,98066.50
2023-03-06T11:49:43.813Z,98029.19
2023-03-06T11:52:26.587Z,98058.03
2023-03-06T11:55:00.311Z,98064.81
2023-03-06T11:57:41.276Z,98070.72
2023-03-06T12:00:21.496Z,98062.19
2023-03-06T12:03:21.745Z,98075.75
2023-03-06T12:05:58.691Z,98069.88
2023-03-06T12:08:39.256Z,98080.06
2023-03-06T12:11:24.729Z,98075.84
2023-03-06T12:14:08.844Z,98074.94
2023-03-06T12:16:54.459Z,98068.13
2023-03-06T12:19:43.421Z,98058.69
2023-03-06T12:22:29.129Z,98067.94
2023-03-06T12:28:14.455Z,98072.28
2023-03-06T12:31:07.919Z,98068.06
2023-03-06T12:33:46.725Z,98067.25
2023-03-06T12:36:35.468Z,98070.72
2023-03-06T12:39:12.488Z,98080.09
2023-03-06T12:41:53.325Z,98075.81
2023-03-06T12:44:50.821Z,98080.91
2023-03-06T12:53:09.974Z,98080.09
2023-03-06T12:55:43.268Z,98080.09
2023-03-06T12:58:52.985Z,98063.09
2023-03-06T13:01:51.676Z,98122.25
2023-03-06T13:04:46.605Z,98107.56
2023-03-06T13:07:45.300Z,98110.72
2023-03-06T13:10:26.226Z,98123.50
2023-03-06T13:13:06.988Z,98139.69
2023-03-06T13:15:45.427Z,98123.66
2023-03-06T13:18:55.793Z,98116.06
2023-03-06T13:22:03.885Z,98110.03
2023-03-06T13:24:38.347Z,98109.13
2023-03-06T13:27:13.182Z,98123.56
2023-03-06T13:30:05.053Z,98113.28
2023-03-06T13:32:42.343Z,98113.16
2023-03-06T13:35:53.244Z,98130.09
2023-03-06T13:38:55.470Z,98130.16
2023-03-06T13:41:46.443Z,98128.56
2023-03-06T13:44:48.429Z,98138.72
2023-03-06T13:48:02.870Z,98144.66
2023-03-06T13:50:46.961Z,98128.63
2023-03-06T13:53:44.052Z,98140.56
2023-03-06T13:56:59.258Z,98140.72
2023-03-06T14:00:08.113Z,98143.47
2023-03-06T14:03:05.869Z,98142.75
2023-03-06T14:05:43.955Z,98146.06
2023-03-06T14:08:16.864Z,98133.16
2023-03-06T14:10:48.204Z,98139.81
2023-03-06T14:13:30.036Z,98122.72
2023-03-06T14:16:04.322Z,98134.28
2023-03-06T14:18:39.942Z,98146.09
2023-03-06T14:21:14.052Z,98157.84
2023-03-06T14:23:53.420Z,98162.81
2023-03-06T14:26:25.137Z,98148.28
2023-03-06T14:28:58.219Z,98159.22
2023-03-06T14:31:31.141Z,98173.44
2023-03-06T14:34:04.639Z,98169.13
2023-03-06T14:36:38.392Z,98159.84
2023-03-06T14:39:14.464Z,98170.22
2023-03-06T14:41:43.980Z,98162.66
2023-03-06T14:44:24.110Z,98173.75
2023-03-06T14:47:13.049Z,98169.44
2023-03-06T14:49:44.346Z,98184.66
2023-03-06T14:52:21.246Z,98177.09
2023-03-06T14:54:51.859Z,98183.13
2023-03-06T14:57:24.505Z,98176.31
2023-03-06T14:59:58.385Z,98189.97
2023-03-06T15:02:32.470Z,98185.75
2023-03-06T15:05:08.098Z,98161.28
2023-03-06T15:07:37.399Z,98178.13
2023-03-06T15:10:10.120Z,98189.97
2023-03-06T15:15:32.269Z,98204.16
2023-03-06T15:18:04.597Z,98192.94
2023-03-06T15:20:55.547Z,98201.41
2023-03-06T15:23:27.791Z,98198.75
2023-03-06T15:25:59.428Z,98196.97
2023-03-06T15:28:38.220Z,98207.28
2023-03-06T15:31:20.872Z,98208.19
2023-03-06T15:34:15.061Z,98228.41
2023-03-06T15:36:48.581Z,98214.69
2023-03-06T15:39:40.029Z,98229.88
2023-03-06T15:45:17.625Z,98234.44
2023-03-06T15:47:54.087Z,98204.38
2023-03-06T15:50:25.917Z,98250.13
2023-03-06T15:52:57.149Z,98242.25
2023-03-06T15:55:27.770Z,98236.34
2023-03-06T15:57:59.279Z,98253.47
2023-03-06T16:00:30.520Z,98256.06
2023-03-06T16:03:00.594Z,98256.81
2023-03-06T16:05:31.184Z,98263.47
2023-03-06T16:08:03.279Z,98249.03
2023-03-06T16:10:35.516Z,98270.13
2023-03-06T16:13:09.147Z,98280.16
2023-03-06T16:15:48.900Z,98270.72
2023-03-06T16:18:18.592Z,98272.34
2023-03-06T16:20:47.872Z,98260.50
2023-03-06T16:23:19.057Z,98284.34
2023-03-06T16:25:50.979Z,98264.81
2023-03-06T16:28:19.963Z,98291.25
2023-03-06T16:30:49.116Z,98285.91
2023-03-06T16:33:28.953Z,98283.53
2023-03-06T16:35:58.338Z,98287.84
2023-03-06T16:38:29.663Z,98293.97
2023-03-06T16:40:59.210Z,98305.06
2023-03-06T16:43:29.382Z,98300.53
2023-03-06T16:45:59.748Z,98305.34
2023-03-06T16:48:28.904Z,98318.78
2023-03-06T16:50:58.158Z,98293.16
2023-03-06T16:53:29.438Z,98310.28
2023-03-06T16:55:58.645Z,98308.50
2023-03-06T16:58:31.679Z,98323.75
2023-03-06T17:01:01.751Z,98316.94
2023-03-06T17:03:31.014Z,98323.63
2023-03-06T17:06:00.335Z,98321.75
2023-03-06T17:08:31.946Z,98327.63
2023-03-06T17:11:01.331Z,98317.38
2023-03-06T17:13:30.511Z,98287.47
2023-03-06T17:16:01.516Z,98318.72
2023-03-06T17:18:36.537Z,98338.16
2023-03-06T17:21:06.213Z,98334.50
2023-03-06T17:23:37.456Z,98346.34
2023-03-06T17:26:08.775Z,98333.53
2023-03-06T17:28:41.180Z,98324.06
2023-03-06T17:31:18.294Z,98351.28
2023-03-06T17:33:48.454Z,98352.91
2023-03-06T17:36:18.842Z,98351.25
2023-03-06T17:38:50.316Z,98354.69
2023-03-06T17:41:19.537Z,98347.06
2023-03-06T17:43:48.759Z,98294.94
2023-03-06T17:46:18.084Z,98352.31
2023-03-06T17:48:49.008Z,98351.38
2023-03-06T17:51:23.330Z,98365.94
2023-03-06T17:53:55.248Z,98362.69
2023-03-06T17:56:29.812Z,98371.31
2023-03-06T17:58:59.380Z,98378.31
2023-03-06T18:01:30.043Z,98372.63
2023-03-06T18:04:01.805Z,98361.31
2023-03-06T18:06:33.091Z,98383.31
2023-03-06T18:09:04.617Z,98379.81
2023-03-06T18:11:35.038Z,98379.69
2023-03-06T18:14:05.674Z,98371.06
2023-03-06T18:16:35.198Z,98378.72
2023-03-06T18:19:12.088Z,98382.66
2023-03-06T18:21:41.987Z,98391.84
2023-03-06T18:24:13.212Z,98384.88
2023-03-06T18:26:44.073Z,98394.13
2023-03-06T18:29:13.838Z,98393.16
2023-03-06T18:31:45.688Z,98400.00
2023-03-06T18:34:18.478Z,98392.63
2023-03-06T18:36:51.208Z,98385.88
2023-03-06T18:39:22.978Z,98398.16
2023-03-06T18:41:53.053Z,98394.88
2023-03-06T18:44:34.048Z,98398.34
2023-03-06T18:47:03.416Z,98396.53
2023-03-06T18:49:32.604Z,98398.84
2023-03-06T18:52:02.120Z,98401.91
2023-03-06T18:54:34.243Z,98404.09
2023-03-06T18:59:38.317Z,98407.22
2023-03-06T19:02:07.463Z,98410.59
2023-03-06T19:04:43.007Z,98401.81
2023-03-06T19:07:14.323Z,98425.56
2023-03-06T19:09:46.154Z,98418.72
2023-03-06T19:12:20.453Z,98421.25
2023-03-06T19:14:50.003Z,98406.72
2023-03-06T19:17:19.178Z,98430.53
2023-03-06T19:19:56.561Z,98422.69
2023-03-06T19:22:25.827Z,98426.91
2023-03-06T19:25:03.799Z,98422.56
2023-03-06T19:27:34.323Z,98438.56
2023-03-06T19:30:11.114Z,98419.75
2023-03-06T19:32:40.440Z,98430.81
2023-03-06T19:35:10.629Z,98429.88
2023-03-06T19:37:46.311Z,98423.03
2023-03-06T19:40:17.716Z,98426.38
2023-03-06T19:42:47.133Z,98433.06
2023-03-06T19:45:16.220Z,98430.56
2023-03-06T19:47:53.355Z,98436.41
2023-03-06T19:50:23.569Z,98437.97
2023-03-06T19:52:53.253Z,98447.19
2023-03-06T19:55:28.175Z,98442.06
2023-03-06T19:57:57.543Z,98428.34
2023-03-06T20:00:27.163Z,98432.06
2023-03-06T20:03:01.581Z,98430.59
2023-03-06T20:05:30.917Z,98428.16
2023-03-06T20:08:00.167Z,98445.22
2023-03-06T20:10:38.893Z,98422.91
2023-03-06T20:13:08.298Z,98440.03
2023-03-06T20:15:37.385Z,98435.84
2023-03-06T20:18:08.072Z,98457.13
2023-03-06T20:20:39.539Z,98441.25
2023-03-06T20:23:08.879Z,98443.22
2023-03-06T20:25:40.344Z,98442.59
2023-03-06T20:28:14.817Z,98437.53
2023-03-06T20:30:43.961Z,98445.28
2023-03-06T20:33:14.976Z,98427.44
2023-03-06T20:35:44.805Z,98435.81
2023-03-06T20:38:14.029Z,98443.03
2023-03-06T20:40:45.705Z,98432.78
2023-03-06T20:43:15.600Z,98441.47
2023-03-06T20:45:44.786Z,98452.59
2023-03-06T20:48:14.094Z,98439.09
2023-03-06T20:50:43.271Z,98444.25
2023-03-06T20:53:12.506Z,98454.38
2023-03-06T20:55:47.935Z,98444.19
2023-03-06T20:58:21.183Z,98455.31
2023-03-06T21:00:50.439Z,98444.25
2023-03-06T21:03:19.656Z,98442.59
2023-03-06T21:05:49.081Z,98458.75
2023-03-06T21:08:19.176Z,98453.72
2023-03-06T21:10:48.514Z,98468.88
2023-03-06T21:13:19.745Z,98453.66
2023-03-06T21:15:49.027Z,98462.16
2023-03-06T21:18:18.265Z,98458.03
2023-03-06T21:20:47.698Z,98454.72
2023-03-06T21:23:18.630Z,98452.13
2023-03-06T21:25:51.683Z,98451.41
2023-03-06T21:28:23.037Z,98458.13
2023-03-06T21:30:57.322Z,98462.38
2023-03-06T21:33:26.612Z,98460.66
2023-03-06T21:35:55.849Z,98465.78
2023-03-06T21:38:25.171Z,98434.22
2023-03-06T21:40:55.583Z,98471.75
2023-03-06T21:43:26.964Z,98436.09
2023-03-06T21:45:58.890Z,98472.81
2023-03-06T21:48:28.178Z,98471.94
2023-03-06T21:51:05.755Z,98477.06
2023-03-06T21:53:45.028Z,98474.38
2023-03-06T21:56:15.301Z,98468.41
2023-03-06T21:58:53.144Z,98460.59
2023-03-06T22:01:25.224Z,98475.13
2023-03-06T22:03:54.490Z,98481.81
2023-03-06T22:06:26.216Z,98480.09
2023-03-06T22:08:57.981Z,98481.75
2023-03-06T22:11:27.779Z,98477.56
2023-03-06T22:13:59.755Z,98461.97
2023-03-06T22:16:29.525Z,98462.78
2023-03-06T22:18:58.635Z,98460.16
2023-03-06T22:21:33.316Z,98472.81
2023-03-06T22:24:02.749Z,98477.75
2023-03-06T22:26:32.202Z,98477.13
2023-03-06T22:29:08.812Z,98469.56
2023-03-06T22:31:40.230Z,98476.34
2023-03-06T22:34:09.776Z,98472.22
2023-03-06T22:36:38.844Z,98456.97
2023-03-06T22:39:08.013Z,98453.66
2023-03-06T22:41:43.534Z,98455.47
2023-03-06T22:44:18.862Z,98478.25
2023-03-06T22:46:48.401Z,98466.44
2023-03-06T22:49:18.409Z,98470.66
2023-03-06T22:51:47.573Z,98467.22
2023-03-06T22:54:16.689Z,98475.72
2023-03-06T22:56:45.830Z,98476.53
2023-03-06T22:59:17.138Z,98454.44
2023-03-06T23:01:46.432Z,98483.41
2023-03-06T23:04:15.728Z,98464.88
2023-03-06T23:06:46.578Z,98462.97
2023-03-06T23:09:20.093Z,98468.25
2023-03-06T23:11:55.916Z,98469.97
2023-03-06T23:14:49.106Z,98472.50
2023-03-06T23:17:36.777Z,98464.88
2023-03-06T23:20:24.864Z,98471.53
2023-03-06T23:23:18.238Z,98468.84
2023-03-06T23:25:48.494Z,98458.47
2023-03-06T23:28:23.058Z,98467.63
2023-03-06T23:30:54.635Z,98424.69
2023-03-06T23:33:23.896Z,98463.16
2023-03-06T23:35:58.038Z,98472.44
2023-03-06T23:38:27.329Z,98469.06
2023-03-06T23:40:56.486Z,98464.09
2023-03-06T23:43:26.117Z,98466.50
2023-03-06T23:46:02.749Z,98459.84
2023-03-06T23:48:32.410Z,98464.09
2023-03-06T23:51:01.910Z,98464.09
2023-03-06T23:53:31.146Z,98448.06
2023-03-06T23:56:01.594Z,98466.78
2023-03-06T23:58:30.827Z,98455.91
